• Join FlightAware (Why Join?)
  • Login
  • US Flag 
05:47PM EST


 

Airport Tracker/Info


-or-


 

Live Flight TrackerFlight Track Log ✈ SWA253 ✈ 10-Apr-2013 ✈ KOAK - KBUR

Flight Track Log - Related Links

Times and Time Zones

All times are in EDT time to prevent confusion due to time zone crossing. See the SWA253 flight status page for this flight to view local times or setup timezone preferences in your user account.

Time Position Orientation Groundspeed Altitude Reporting Facility
EDT Latitude Longitude Course Direction KTS MPH feet Rate Location/Type
10:39PM 37.7333 -122.2500 107° East 159 183 1,200  Level Northern Cal TRACON
10:39PM 37.7339 -122.2644 273° West 177 204 1,500 2,634 Climbing Oakland Center
10:40PM 37.7556 -122.3269 294° West 198 228 4,800 3,720 Climbing Oakland Center
10:41PM 37.7500 -122.3833 263° West 225 259 7,700 3,180 Climbing Northern Cal TRACON
10:44PM 37.5881 -122.4922 208° Southwest 332 382 14,500 2,854 Climbing Oakland Center
10:45PM 37.2481 -122.2758 107° East  Level FlightAware Approximate
10:45PM 37.5011 -122.4275 149° Southeast 374 430 17,500  Level Oakland Center
10:46PM 37.4153 -122.3294 138° Southeast 413 475 19,800 2,557 Climbing Oakland Center
10:47PM 37.3239 -122.2289 139° Southeast 434 499 22,700 2,705 Climbing Oakland Center
10:48PM 37.2314 -122.1247 138° Southeast 447 514 25,300 2,607 Climbing Oakland Center
10:49PM 37.1158 -121.9978 139° Southeast 462 532 28,000 2,607 Climbing Oakland Center
10:50PM 37.0186 -121.8911 139° Southeast 467 537 30,600 2,293 Climbing Oakland Center
10:51PM 36.9217 -121.7872 139° Southeast 463 533 32,700 1,171 Climbing Oakland Center
10:52PM 36.8250 -121.6850 140° Southeast 459 528 33,000 148 Climbing Oakland Center
10:53PM 36.7261 -121.5781 139° Southeast 457 526 33,000  Level Oakland Center
10:54PM 36.6300 -121.4736 139° Southeast 458 527 33,000  Level Oakland Center
10:55PM 36.5350 -121.3697 139° Southeast 457 526 33,000  Level Oakland Center
10:56PM 36.4381 -121.2672 140° Southeast 458 527 33,000  Level Oakland Center
10:57PM 36.3411 -121.1639 139° Southeast 460 529 33,000 -49 Level Oakland Center
10:58PM 36.2439 -121.0619 140° Southeast 460 529 32,900  Descending Oakland Center
10:59PM 36.1475 -120.9594 139° Southeast 459 528 33,000 49 Climbing Oakland Center
11:00PM 36.0511 -120.8575 139° Southeast 458 527 33,000  Level Oakland Center
11:01PM 35.9544 -120.7556 140° Southeast 457 526 33,000  Level Oakland Center
11:02PM 35.8383 -120.6347 140° Southeast 457 526 33,000  Level Oakland Center
11:03PM 35.7428 -120.5350 140° Southeast 452 520 33,000  Level Oakland Center
11:04PM 35.6481 -120.4367 140° Southeast 447 514 33,000 -246 Level Oakland Center
11:05PM 35.5500 -120.3356 140° Southeast 454 522 32,500 -689 Descending Oakland Center
11:06PM 35.4556 -120.2378 140° Southeast 453 521 31,600 -976 Descending Oakland Center
11:07PM 35.3508 -120.1275 139° Southeast 466 536 30,500 -1,000 Descending Oakland Center
11:07PM 35.3314 -120.1083 141° Southeast 461 531 30,300 -846 Descending Los Angeles Center
11:08PM 35.2331 -120.0089 140° Southeast 456 525 29,400 -919 Descending Los Angeles Center
11:09PM 35.1350 -119.9094 140° Southeast 457 526 28,400 -1,463 Descending Los Angeles Center
11:10PM 35.0453 -119.8011 135° Southeast 453 521 26,400 -2,293 Descending Los Angeles Center
11:11PM 34.9472 -119.6683 132° Southeast 440 506 23,700 -2,371 Descending Los Angeles Center
11:12PM 34.8672 -119.5606 132° Southeast 430 495 21,500 -2,146 Descending Los Angeles Center
11:13PM 34.7889 -119.4561 132° Southeast 420 483 19,300 -2,049 Descending Los Angeles Center
11:14PM 34.7156 -119.3550 131° Southeast 403 464 17,300 -2,032 Descending Los Angeles Center
11:15PM 34.6414 -119.2583 133° Southeast 393 452 15,100 -2,032 Descending Los Angeles Center
11:16PM 34.5706 -119.1667 133° Southeast 384 442 13,100 -1,854 Descending Los Angeles Center
11:18PM 34.5022 -119.0744 132° Southeast 370 426 11,300 -1,366 Descending Los Angeles Center
11:19PM 34.4314 -118.9803 132° Southeast 312 359 10,300 -1,258 Descending Los Angeles Center
11:20PM 34.3761 -118.9053 132° Southeast 303 349 8,700 -1,500 Descending Los Angeles Center
11:21PM 34.3300 -118.8242 125° Southeast 293 337 7,200 -1,366 Descending Los Angeles Center
11:22PM 34.2817 -118.7489 128° Southeast 283 326 5,900 -1,024 Descending Los Angeles Center
11:23PM 34.2383 -118.6742 125° Southeast 277 319 5,100 -762 Descending Los Angeles Center
11:24PM 34.2000 -118.6000 122° Southeast 235 270 4,300 -677 Descending Southern California TRACON
11:25PM 34.2000 -118.5167 90° East 210 242 3,700 -800 Descending Southern California TRACON
11:26PM 34.2000 -118.4667 90° East 155 178 2,700 -1,100 Descending Southern California TRACON
11:27PM 34.2000 -118.4167 90° East 149 171 1,500 -816 Descending Southern California TRACON
11:28PM 34.1986 -118.3714 92° East 161 185 1,000 -462 Descending Los Angeles Center
11:30PM 34.2000 -118.3500 140° Southeast  Level FlightAware Approximate
11:37PM 34.2007 -118.3587 140° Southeast  Level Estimated